sensor_id;sensor_type;location;lat;lon;timestamp;P1;durP1;ratioP1;P2;durP2;ratioP2
22579;SDS011;11456;47.030;15.396;2023-09-19T00:00:41;16.23;;;4.88;;
22579;SDS011;11456;47.030;15.396;2023-09-19T00:03:10;16.75;;;5.30;;
22579;SDS011;11456;47.030;15.396;2023-09-19T00:05:38;11.05;;;4.88;;
22579;SDS011;11456;47.030;15.396;2023-09-19T00:08:06;12.88;;;4.93;;
22579;SDS011;11456;47.030;15.396;2023-09-19T00:10:33;13.75;;;4.93;;
22579;SDS011;11456;47.030;15.396;2023-09-19T00:13:03;15.27;;;5.03;;
22579;SDS011;11456;47.030;15.396;2023-09-19T00:15:38;16.88;;;4.60;;
22579;SDS011;11456;47.030;15.396;2023-09-19T00:18:17;19.48;;;4.88;;
22579;SDS011;11456;47.030;15.396;2023-09-19T00:20:48;16.35;;;4.43;;
22579;SDS011;11456;47.030;15.396;2023-09-19T00:23:16;11.50;;;4.80;;
22579;SDS011;11456;47.030;15.396;2023-09-19T00:25:43;15.70;;;4.28;;
22579;SDS011;11456;47.030;15.396;2023-09-19T00:28:11;17.30;;;4.72;;
22579;SDS011;11456;47.030;15.396;2023-09-19T00:30:38;12.90;;;4.63;;
22579;SDS011;11456;47.030;15.396;2023-09-19T00:33:08;14.45;;;4.78;;
22579;SDS011;11456;47.030;15.396;2023-09-19T00:35:37;14.82;;;4.28;;
22579;SDS011;11456;47.030;15.396;2023-09-19T00:38:04;10.82;;;4.32;;
22579;SDS011;11456;47.030;15.396;2023-09-19T00:40:33;10.77;;;4.22;;
22579;SDS011;11456;47.030;15.396;2023-09-19T00:43:02;9.98;;;3.92;;
22579;SDS011;11456;47.030;15.396;2023-09-19T00:45:29;16.40;;;3.97;;
22579;SDS011;11456;47.030;15.396;2023-09-19T00:47:55;9.38;;;3.65;;
22579;SDS011;11456;47.030;15.396;2023-09-19T00:50:24;11.68;;;3.47;;
22579;SDS011;11456;47.030;15.396;2023-09-19T00:52:54;7.75;;;3.13;;
22579;SDS011;11456;47.030;15.396;2023-09-19T00:55:24;11.32;;;3.30;;
22579;SDS011;11456;47.030;15.396;2023-09-19T00:57:52;9.77;;;3.40;;
22579;SDS011;11456;47.030;15.396;2023-09-19T01:00:23;9.20;;;2.85;;
22579;SDS011;11456;47.030;15.396;2023-09-19T01:02:51;6.43;;;2.50;;
22579;SDS011;11456;47.030;15.396;2023-09-19T01:05:18;4.03;;;2.40;;
22579;SDS011;11456;47.030;15.396;2023-09-19T01:07:45;7.50;;;2.72;;
22579;SDS011;11456;47.030;15.396;2023-09-19T01:10:15;8.93;;;2.60;;
22579;SDS011;11456;47.030;15.396;2023-09-19T01:13:08;7.25;;;2.60;;
22579;SDS011;11456;47.030;15.396;2023-09-19T01:18:52;7.43;;;2.25;;
22579;SDS011;11456;47.030;15.396;2023-09-19T01:21:30;8.02;;;2.53;;
22579;SDS011;11456;47.030;15.396;2023-09-19T01:32:16;4.38;;;1.75;;
22579;SDS011;11456;47.030;15.396;2023-09-19T01:34:49;6.70;;;2.30;;
22579;SDS011;11456;47.030;15.396;2023-09-19T01:37:17;3.97;;;2.10;;
22579;SDS011;11456;47.030;15.396;2023-09-19T01:39:47;6.43;;;2.10;;
22579;SDS011;11456;47.030;15.396;2023-09-19T01:48:00;7.32;;;2.40;;
22579;SDS011;11456;47.030;15.396;2023-09-19T01:51:02;6.28;;;2.05;;
22579;SDS011;11456;47.030;15.396;2023-09-19T01:53:36;5.47;;;2.10;;
22579;SDS011;11456;47.030;15.396;2023-09-19T01:56:31;6.10;;;2.00;;
22579;SDS011;11456;47.030;15.396;2023-09-19T01:59:04;5.75;;;2.05;;
22579;SDS011;11456;47.030;15.396;2023-09-19T02:01:36;9.77;;;2.40;;
22579;SDS011;11456;47.030;15.396;2023-09-19T02:04:04;3.88;;;1.60;;
22579;SDS011;11456;47.030;15.396;2023-09-19T02:06:31;7.13;;;1.70;;
22579;SDS011;11456;47.030;15.396;2023-09-19T02:09:00;5.05;;;1.63;;
22579;SDS011;11456;47.030;15.396;2023-09-19T02:11:27;4.68;;;1.60;;
22579;SDS011;11456;47.030;15.396;2023-09-19T02:13:54;3.17;;;1.38;;
22579;SDS011;11456;47.030;15.396;2023-09-19T02:16:22;3.92;;;1.33;;
22579;SDS011;11456;47.030;15.396;2023-09-19T02:18:49;2.95;;;1.50;;
22579;SDS011;11456;47.030;15.396;2023-09-19T02:21:17;4.38;;;1.67;;
22579;SDS011;11456;47.030;15.396;2023-09-19T02:23:44;3.45;;;1.38;;
22579;SDS011;11456;47.030;15.396;2023-09-19T02:26:13;7.15;;;1.30;;
22579;SDS011;11456;47.030;15.396;2023-09-19T02:28:40;6.25;;;1.63;;
22579;SDS011;11456;47.030;15.396;2023-09-19T02:31:08;4.78;;;1.55;;
22579;SDS011;11456;47.030;15.396;2023-09-19T02:33:34;4.38;;;1.67;;
22579;SDS011;11456;47.030;15.396;2023-09-19T02:36:02;6.13;;;1.80;;
22579;SDS011;11456;47.030;15.396;2023-09-19T02:38:32;6.97;;;1.63;;
22579;SDS011;11456;47.030;15.396;2023-09-19T02:40:59;3.80;;;1.60;;
22579;SDS011;11456;47.030;15.396;2023-09-19T02:43:26;3.42;;;1.85;;
22579;SDS011;11456;47.030;15.396;2023-09-19T02:45:52;7.32;;;2.08;;
22579;SDS011;11456;47.030;15.396;2023-09-19T02:48:23;4.88;;;1.52;;
22579;SDS011;11456;47.030;15.396;2023-09-19T02:50:52;4.22;;;1.70;;
22579;SDS011;11456;47.030;15.396;2023-09-19T02:53:19;5.63;;;1.73;;
22579;SDS011;11456;47.030;15.396;2023-09-19T02:55:49;4.40;;;1.60;;
22579;SDS011;11456;47.030;15.396;2023-09-19T02:58:18;5.32;;;1.40;;
22579;SDS011;11456;47.030;15.396;2023-09-19T03:00:46;7.15;;;2.05;;
22579;SDS011;11456;47.030;15.396;2023-09-19T03:03:15;8.45;;;2.13;;
22579;SDS011;11456;47.030;15.396;2023-09-19T03:05:43;2.63;;;1.52;;
22579;SDS011;11456;47.030;15.396;2023-09-19T03:08:16;3.50;;;1.70;;
22579;SDS011;11456;47.030;15.396;2023-09-19T03:10:46;4.60;;;1.50;;
22579;SDS011;11456;47.030;15.396;2023-09-19T03:13:14;5.53;;;1.65;;
22579;SDS011;11456;47.030;15.396;2023-09-19T03:15:42;4.35;;;1.70;;
22579;SDS011;11456;47.030;15.396;2023-09-19T03:18:18;3.78;;;1.60;;
22579;SDS011;11456;47.030;15.396;2023-09-19T03:20:52;6.57;;;1.70;;
22579;SDS011;11456;47.030;15.396;2023-09-19T03:23:22;5.43;;;1.65;;
22579;SDS011;11456;47.030;15.396;2023-09-19T03:25:49;3.05;;;1.40;;
22579;SDS011;11456;47.030;15.396;2023-09-19T03:28:17;7.32;;;1.67;;
22579;SDS011;11456;47.030;15.396;2023-09-19T03:30:44;6.80;;;1.70;;
22579;SDS011;11456;47.030;15.396;2023-09-19T03:33:11;7.18;;;1.75;;
22579;SDS011;11456;47.030;15.396;2023-09-19T03:35:40;4.50;;;1.40;;
22579;SDS011;11456;47.030;15.396;2023-09-19T03:38:07;6.30;;;1.73;;
22579;SDS011;11456;47.030;15.396;2023-09-19T03:40:33;3.33;;;1.67;;
22579;SDS011;11456;47.030;15.396;2023-09-19T03:43:04;3.35;;;1.65;;
22579;SDS011;11456;47.030;15.396;2023-09-19T03:45:31;7.25;;;2.20;;
22579;SDS011;11456;47.030;15.396;2023-09-19T03:47:57;4.68;;;2.10;;
22579;SDS011;11456;47.030;15.396;2023-09-19T03:50:24;6.45;;;2.38;;
22579;SDS011;11456;47.030;15.396;2023-09-19T03:52:55;2.97;;;1.90;;
22579;SDS011;11456;47.030;15.396;2023-09-19T03:55:26;5.18;;;1.88;;
22579;SDS011;11456;47.030;15.396;2023-09-19T03:57:53;5.05;;;1.90;;
22579;SDS011;11456;47.030;15.396;2023-09-19T04:00:20;5.47;;;2.15;;
22579;SDS011;11456;47.030;15.396;2023-09-19T04:02:49;4.32;;;1.77;;
22579;SDS011;11456;47.030;15.396;2023-09-19T04:05:18;6.30;;;2.47;;
22579;SDS011;11456;47.030;15.396;2023-09-19T04:07:45;6.03;;;2.30;;
22579;SDS011;11456;47.030;15.396;2023-09-19T04:10:12;4.03;;;2.20;;
22579;SDS011;11456;47.030;15.396;2023-09-19T04:12:50;7.13;;;2.03;;
22579;SDS011;11456;47.030;15.396;2023-09-19T04:15:18;4.85;;;2.08;;
22579;SDS011;11456;47.030;15.396;2023-09-19T04:17:45;4.10;;;2.03;;
22579;SDS011;11456;47.030;15.396;2023-09-19T04:20:12;6.68;;;2.20;;
22579;SDS011;11456;47.030;15.396;2023-09-19T04:22:39;4.60;;;2.05;;
22579;SDS011;11456;47.030;15.396;2023-09-19T04:25:06;3.17;;;1.67;;
22579;SDS011;11456;47.030;15.396;2023-09-19T04:27:33;8.50;;;2.30;;
22579;SDS011;11456;47.030;15.396;2023-09-19T04:30:00;4.93;;;2.28;;
22579;SDS011;11456;47.030;15.396;2023-09-19T04:32:30;4.63;;;2.22;;
22579;SDS011;11456;47.030;15.396;2023-09-19T04:34:59;6.15;;;2.05;;
22579;SDS011;11456;47.030;15.396;2023-09-19T04:37:28;5.05;;;1.88;;
22579;SDS011;11456;47.030;15.396;2023-09-19T04:39:55;4.45;;;2.28;;
22579;SDS011;11456;47.030;15.396;2023-09-19T04:42:22;5.43;;;2.30;;
22579;SDS011;11456;47.030;15.396;2023-09-19T04:44:51;5.05;;;2.17;;
22579;SDS011;11456;47.030;15.396;2023-09-19T04:47:19;6.00;;;1.80;;
22579;SDS011;11456;47.030;15.396;2023-09-19T04:49:47;3.38;;;1.80;;
22579;SDS011;11456;47.030;15.396;2023-09-19T04:52:14;5.53;;;2.08;;
22579;SDS011;11456;47.030;15.396;2023-09-19T04:54:41;5.72;;;1.70;;
22579;SDS011;11456;47.030;15.396;2023-09-19T04:57:08;4.38;;;2.10;;
22579;SDS011;11456;47.030;15.396;2023-09-19T04:59:35;4.80;;;2.03;;
22579;SDS011;11456;47.030;15.396;2023-09-19T05:02:03;7.88;;;1.92;;
22579;SDS011;11456;47.030;15.396;2023-09-19T05:04:30;8.98;;;1.88;;
22579;SDS011;11456;47.030;15.396;2023-09-19T05:06:58;5.32;;;1.77;;
22579;SDS011;11456;47.030;15.396;2023-09-19T05:09:25;3.70;;;1.77;;
22579;SDS011;11456;47.030;15.396;2023-09-19T05:11:52;5.25;;;1.75;;
22579;SDS011;11456;47.030;15.396;2023-09-19T05:14:19;3.63;;;1.48;;
22579;SDS011;11456;47.030;15.396;2023-09-19T05:16:47;3.72;;;1.77;;
22579;SDS011;11456;47.030;15.396;2023-09-19T05:19:15;8.27;;;1.83;;
22579;SDS011;11456;47.030;15.396;2023-09-19T05:21:43;4.03;;;1.70;;
22579;SDS011;11456;47.030;15.396;2023-09-19T05:24:10;4.40;;;1.95;;
22579;SDS011;11456;47.030;15.396;2023-09-19T05:26:39;8.55;;;2.15;;
22579;SDS011;11456;47.030;15.396;2023-09-19T05:29:06;4.95;;;1.70;;
22579;SDS011;11456;47.030;15.396;2023-09-19T05:31:34;2.88;;;1.50;;
22579;SDS011;11456;47.030;15.396;2023-09-19T05:34:03;7.10;;;1.85;;
22579;SDS011;11456;47.030;15.396;2023-09-19T05:36:29;2.78;;;1.75;;
22579;SDS011;11456;47.030;15.396;2023-09-19T05:38:56;3.45;;;1.55;;
22579;SDS011;11456;47.030;15.396;2023-09-19T05:41:23;4.30;;;1.70;;
22579;SDS011;11456;47.030;15.396;2023-09-19T05:43:50;3.38;;;1.40;;
22579;SDS011;11456;47.030;15.396;2023-09-19T05:46:17;4.35;;;1.70;;
22579;SDS011;11456;47.030;15.396;2023-09-19T05:48:44;9.20;;;1.85;;
22579;SDS011;11456;47.030;15.396;2023-09-19T05:51:10;4.28;;;1.88;;
22579;SDS011;11456;47.030;15.396;2023-09-19T05:53:37;8.18;;;2.05;;
22579;SDS011;11456;47.030;15.396;2023-09-19T05:56:04;4.28;;;1.90;;
22579;SDS011;11456;47.030;15.396;2023-09-19T05:58:31;3.50;;;2.10;;
22579;SDS011;11456;47.030;15.396;2023-09-19T06:00:58;5.50;;;2.08;;
22579;SDS011;11456;47.030;15.396;2023-09-19T06:03:25;6.82;;;2.00;;
22579;SDS011;11456;47.030;15.396;2023-09-19T06:05:52;4.68;;;1.73;;
22579;SDS011;11456;47.030;15.396;2023-09-19T06:08:23;4.13;;;1.88;;
22579;SDS011;11456;47.030;15.396;2023-09-19T06:10:50;5.38;;;2.10;;
22579;SDS011;11456;47.030;15.396;2023-09-19T06:13:18;4.82;;;1.80;;
22579;SDS011;11456;47.030;15.396;2023-09-19T06:15:46;2.55;;;1.63;;
22579;SDS011;11456;47.030;15.396;2023-09-19T06:18:16;4.07;;;1.83;;
22579;SDS011;11456;47.030;15.396;2023-09-19T06:20:46;3.92;;;1.50;;
22579;SDS011;11456;47.030;15.396;2023-09-19T06:23:13;7.97;;;2.00;;
22579;SDS011;11456;47.030;15.396;2023-09-19T06:25:41;3.25;;;1.77;;
22579;SDS011;11456;47.030;15.396;2023-09-19T06:28:09;5.82;;;2.00;;
22579;SDS011;11456;47.030;15.396;2023-09-19T06:30:39;3.03;;;1.85;;
22579;SDS011;11456;47.030;15.396;2023-09-19T06:33:09;5.00;;;2.20;;
22579;SDS011;11456;47.030;15.396;2023-09-19T06:35:37;5.80;;;1.90;;
22579;SDS011;11456;47.030;15.396;2023-09-19T06:38:04;4.38;;;1.73;;
22579;SDS011;11456;47.030;15.396;2023-09-19T06:40:33;6.55;;;2.30;;
22579;SDS011;11456;47.030;15.396;2023-09-19T06:43:00;3.53;;;1.80;;
22579;SDS011;11456;47.030;15.396;2023-09-19T06:45:28;4.30;;;1.90;;
22579;SDS011;11456;47.030;15.396;2023-09-19T06:47:55;5.18;;;2.28;;
22579;SDS011;11456;47.030;15.396;2023-09-19T06:50:25;9.73;;;2.20;;
22579;SDS011;11456;47.030;15.396;2023-09-19T06:52:54;3.55;;;1.92;;
22579;SDS011;11456;47.030;15.396;2023-09-19T06:55:24;4.43;;;1.83;;
22579;SDS011;11456;47.030;15.396;2023-09-19T06:57:51;5.78;;;2.35;;
22579;SDS011;11456;47.030;15.396;2023-09-19T07:00:21;5.53;;;2.47;;
22579;SDS011;11456;47.030;15.396;2023-09-19T07:02:57;5.88;;;2.40;;
22579;SDS011;11456;47.030;15.396;2023-09-19T07:05:27;5.88;;;2.10;;
22579;SDS011;11456;47.030;15.396;2023-09-19T07:07:54;8.13;;;2.30;;
22579;SDS011;11456;47.030;15.396;2023-09-19T07:10:22;5.93;;;1.95;;
22579;SDS011;11456;47.030;15.396;2023-09-19T07:12:57;6.47;;;2.40;;
22579;SDS011;11456;47.030;15.396;2023-09-19T07:15:25;3.63;;;2.17;;
22579;SDS011;11456;47.030;15.396;2023-09-19T07:17:52;10.23;;;2.47;;
22579;SDS011;11456;47.030;15.396;2023-09-19T07:20:20;5.28;;;2.42;;
22579;SDS011;11456;47.030;15.396;2023-09-19T07:22:47;3.78;;;2.13;;
22579;SDS011;11456;47.030;15.396;2023-09-19T07:25:14;4.30;;;2.08;;
22579;SDS011;11456;47.030;15.396;2023-09-19T07:27:41;4.82;;;2.03;;
22579;SDS011;11456;47.030;15.396;2023-09-19T07:30:08;6.20;;;2.28;;
22579;SDS011;11456;47.030;15.396;2023-09-19T07:32:36;8.43;;;2.30;;
22579;SDS011;11456;47.030;15.396;2023-09-19T07:35:03;5.00;;;2.03;;
22579;SDS011;11456;47.030;15.396;2023-09-19T07:37:31;6.88;;;2.20;;
22579;SDS011;11456;47.030;15.396;2023-09-19T07:40:03;4.18;;;2.40;;
22579;SDS011;11456;47.030;15.396;2023-09-19T07:42:36;3.33;;;1.90;;
22579;SDS011;11456;47.030;15.396;2023-09-19T07:45:07;5.43;;;2.08;;
22579;SDS011;11456;47.030;15.396;2023-09-19T07:47:34;4.90;;;2.00;;
22579;SDS011;11456;47.030;15.396;2023-09-19T07:50:02;3.40;;;1.67;;
22579;SDS011;11456;47.030;15.396;2023-09-19T07:52:30;8.10;;;2.17;;
22579;SDS011;11456;47.030;15.396;2023-09-19T07:54:56;10.45;;;2.17;;
22579;SDS011;11456;47.030;15.396;2023-09-19T07:57:28;4.60;;;2.10;;
22579;SDS011;11456;47.030;15.396;2023-09-19T07:59:55;4.47;;;1.90;;
22579;SDS011;11456;47.030;15.396;2023-09-19T08:02:22;4.80;;;1.90;;
22579;SDS011;11456;47.030;15.396;2023-09-19T08:04:49;4.38;;;2.00;;
22579;SDS011;11456;47.030;15.396;2023-09-19T08:07:16;4.43;;;2.13;;
22579;SDS011;11456;47.030;15.396;2023-09-19T08:09:42;6.13;;;2.42;;
22579;SDS011;11456;47.030;15.396;2023-09-19T08:12:12;9.88;;;2.40;;
22579;SDS011;11456;47.030;15.396;2023-09-19T08:14:41;8.73;;;2.22;;
22579;SDS011;11456;47.030;15.396;2023-09-19T08:17:08;6.28;;;2.30;;
22579;SDS011;11456;47.030;15.396;2023-09-19T08:19:35;6.47;;;2.40;;
22579;SDS011;11456;47.030;15.396;2023-09-19T08:22:03;8.07;;;2.42;;
22579;SDS011;11456;47.030;15.396;2023-09-19T08:24:29;8.32;;;2.72;;
22579;SDS011;11456;47.030;15.396;2023-09-19T08:26:57;4.15;;;2.15;;
22579;SDS011;11456;47.030;15.396;2023-09-19T08:29:24;10.30;;;2.53;;
22579;SDS011;11456;47.030;15.396;2023-09-19T08:31:55;6.72;;;2.72;;
22579;SDS011;11456;47.030;15.396;2023-09-19T08:34:23;8.43;;;3.22;;
22579;SDS011;11456;47.030;15.396;2023-09-19T08:36:51;12.93;;;2.50;;
22579;SDS011;11456;47.030;15.396;2023-09-19T08:39:24;15.75;;;2.60;;
22579;SDS011;11456;47.030;15.396;2023-09-19T08:41:58;6.45;;;2.00;;
22579;SDS011;11456;47.030;15.396;2023-09-19T08:44:28;12.63;;;2.20;;
22579;SDS011;11456;47.030;15.396;2023-09-19T08:47:06;6.53;;;1.98;;
22579;SDS011;11456;47.030;15.396;2023-09-19T08:52:27;7.82;;;1.83;;
22579;SDS011;11456;47.030;15.396;2023-09-19T08:55:01;4.07;;;2.08;;
22579;SDS011;11456;47.030;15.396;2023-09-19T08:57:34;7.43;;;2.38;;
22579;SDS011;11456;47.030;15.396;2023-09-19T09:00:04;9.13;;;2.10;;
22579;SDS011;11456;47.030;15.396;2023-09-19T09:02:38;7.55;;;2.30;;
22579;SDS011;11456;47.030;15.396;2023-09-19T09:05:09;3.97;;;2.28;;
22579;SDS011;11456;47.030;15.396;2023-09-19T09:07:40;9.02;;;2.50;;
22579;SDS011;11456;47.030;15.396;2023-09-19T09:10:07;7.85;;;2.22;;
22579;SDS011;11456;47.030;15.396;2023-09-19T09:12:37;6.38;;;2.08;;
22579;SDS011;11456;47.030;15.396;2023-09-19T09:15:07;5.78;;;2.50;;
22579;SDS011;11456;47.030;15.396;2023-09-19T09:17:38;15.25;;;2.20;;
22579;SDS011;11456;47.030;15.396;2023-09-19T09:20:04;9.43;;;2.38;;
22579;SDS011;11456;47.030;15.396;2023-09-19T09:22:34;3.70;;;2.13;;
22579;SDS011;11456;47.030;15.396;2023-09-19T09:25:02;7.15;;;2.20;;
22579;SDS011;11456;47.030;15.396;2023-09-19T09:27:31;8.10;;;2.25;;
22579;SDS011;11456;47.030;15.396;2023-09-19T09:29:59;13.82;;;2.30;;
22579;SDS011;11456;47.030;15.396;2023-09-19T09:32:26;8.13;;;2.00;;
22579;SDS011;11456;47.030;15.396;2023-09-19T09:34:56;7.25;;;2.10;;
22579;SDS011;11456;47.030;15.396;2023-09-19T09:39:59;7.03;;;2.72;;
22579;SDS011;11456;47.030;15.396;2023-09-19T09:42:42;8.07;;;2.30;;
22579;SDS011;11456;47.030;15.396;2023-09-19T09:48:03;6.82;;;2.55;;
22579;SDS011;11456;47.030;15.396;2023-09-19T09:50:47;5.07;;;2.20;;
22579;SDS011;11456;47.030;15.396;2023-09-19T09:53:21;7.68;;;3.00;;
22579;SDS011;11456;47.030;15.396;2023-09-19T09:58:28;9.43;;;2.60;;
22579;SDS011;11456;47.030;15.396;2023-09-19T10:00:56;3.92;;;2.40;;
22579;SDS011;11456;47.030;15.396;2023-09-19T10:03:34;5.15;;;2.40;;
22579;SDS011;11456;47.030;15.396;2023-09-19T10:08:37;3.17;;;1.80;;
22579;SDS011;11456;47.030;15.396;2023-09-19T10:11:17;3.45;;;1.70;;
22579;SDS011;11456;47.030;15.396;2023-09-19T10:13:45;4.78;;;2.00;;
22579;SDS011;11456;47.030;15.396;2023-09-19T10:16:13;4.32;;;1.77;;
22579;SDS011;11456;47.030;15.396;2023-09-19T10:18:45;3.47;;;1.85;;
22579;SDS011;11456;47.030;15.396;2023-09-19T10:21:16;3.83;;;1.60;;
22579;SDS011;11456;47.030;15.396;2023-09-19T10:26:18;4.43;;;1.90;;
22579;SDS011;11456;47.030;15.396;2023-09-19T10:28:46;4.95;;;1.73;;
22579;SDS011;11456;47.030;15.396;2023-09-19T10:31:19;3.92;;;1.52;;
22579;SDS011;11456;47.030;15.396;2023-09-19T10:33:50;7.28;;;1.90;;
22579;SDS011;11456;47.030;15.396;2023-09-19T10:36:19;4.25;;;1.90;;
22579;SDS011;11456;47.030;15.396;2023-09-19T10:38:52;2.95;;;1.23;;
22579;SDS011;11456;47.030;15.396;2023-09-19T10:41:21;4.32;;;1.20;;
22579;SDS011;11456;47.030;15.396;2023-09-19T10:43:48;2.83;;;1.40;;
22579;SDS011;11456;47.030;15.396;2023-09-19T10:46:21;5.43;;;1.33;;
22579;SDS011;11456;47.030;15.396;2023-09-19T10:48:48;4.93;;;1.30;;
22579;SDS011;11456;47.030;15.396;2023-09-19T10:51:22;2.25;;;1.23;;
22579;SDS011;11456;47.030;15.396;2023-09-19T10:53:55;2.20;;;1.33;;
22579;SDS011;11456;47.030;15.396;2023-09-19T10:56:36;4.10;;;1.35;;
22579;SDS011;11456;47.030;15.396;2023-09-19T11:01:45;5.55;;;1.40;;
22579;SDS011;11456;47.030;15.396;2023-09-19T11:04:32;4.50;;;1.48;;
22579;SDS011;11456;47.030;15.396;2023-09-19T11:09:51;4.55;;;1.30;;
22579;SDS011;11456;47.030;15.396;2023-09-19T11:14:58;5.15;;;1.60;;
22579;SDS011;11456;47.030;15.396;2023-09-19T11:30:45;2.10;;;1.30;;
22579;SDS011;11456;47.030;15.396;2023-09-19T11:33:16;6.38;;;1.30;;
22579;SDS011;11456;47.030;15.396;2023-09-19T11:36:09;6.72;;;1.30;;
22579;SDS011;11456;47.030;15.396;2023-09-19T11:43:49;4.60;;;1.30;;
22579;SDS011;11456;47.030;15.396;2023-09-19T11:46:23;2.22;;;1.20;;
22579;SDS011;11456;47.030;15.396;2023-09-19T11:48:51;2.38;;;1.00;;
22579;SDS011;11456;47.030;15.396;2023-09-19T11:51:22;1.60;;;1.00;;
22579;SDS011;11456;47.030;15.396;2023-09-19T11:53:53;1.75;;;1.25;;
22579;SDS011;11456;47.030;15.396;2023-09-19T11:56:22;1.10;;;1.00;;
22579;SDS011;11456;47.030;15.396;2023-09-19T11:58:51;6.40;;;1.65;;
22579;SDS011;11456;47.030;15.396;2023-09-19T12:01:31;10.52;;;1.63;;
22579;SDS011;11456;47.030;15.396;2023-09-19T12:04:03;3.38;;;1.20;;
22579;SDS011;11456;47.030;15.396;2023-09-19T12:06:31;2.35;;;1.33;;
22579;SDS011;11456;47.030;15.396;2023-09-19T12:09:02;2.75;;;1.17;;
22579;SDS011;11456;47.030;15.396;2023-09-19T12:11:33;3.08;;;1.40;;
22579;SDS011;11456;47.030;15.396;2023-09-19T12:14:09;3.50;;;1.50;;
22579;SDS011;11456;47.030;15.396;2023-09-19T12:16:36;5.47;;;1.35;;
22579;SDS011;11456;47.030;15.396;2023-09-19T12:19:20;2.38;;;1.10;;
22579;SDS011;11456;47.030;15.396;2023-09-19T12:21:59;2.30;;;1.10;;
22579;SDS011;11456;47.030;15.396;2023-09-19T12:24:31;5.47;;;1.60;;
22579;SDS011;11456;47.030;15.396;2023-09-19T12:27:05;2.00;;;1.20;;
22579;SDS011;11456;47.030;15.396;2023-09-19T12:29:46;2.08;;;0.98;;
22579;SDS011;11456;47.030;15.396;2023-09-19T12:32:16;1.60;;;1.17;;
22579;SDS011;11456;47.030;15.396;2023-09-19T12:34:52;5.13;;;1.40;;
22579;SDS011;11456;47.030;15.396;2023-09-19T12:37:21;2.10;;;1.48;;
22579;SDS011;11456;47.030;15.396;2023-09-19T12:39:49;3.13;;;1.33;;
22579;SDS011;11456;47.030;15.396;2023-09-19T12:42:21;1.63;;;1.33;;
22579;SDS011;11456;47.030;15.396;2023-09-19T12:44:54;3.80;;;1.08;;
22579;SDS011;11456;47.030;15.396;2023-09-19T12:47:24;2.47;;;1.42;;
22579;SDS011;11456;47.030;15.396;2023-09-19T12:52:50;2.97;;;1.10;;
22579;SDS011;11456;47.030;15.396;2023-09-19T12:55:25;2.33;;;1.30;;
22579;SDS011;11456;47.030;15.396;2023-09-19T13:00:39;2.35;;;1.30;;
22579;SDS011;11456;47.030;15.396;2023-09-19T13:03:11;3.58;;;1.20;;
22579;SDS011;11456;47.030;15.396;2023-09-19T13:05:46;3.78;;;1.50;;
22579;SDS011;11456;47.030;15.396;2023-09-19T13:08:25;3.90;;;1.38;;
22579;SDS011;11456;47.030;15.396;2023-09-19T13:11:20;3.30;;;1.10;;
22579;SDS011;11456;47.030;15.396;2023-09-19T13:13:48;2.47;;;1.30;;
22579;SDS011;11456;47.030;15.396;2023-09-19T13:16:20;2.13;;;1.42;;
22579;SDS011;11456;47.030;15.396;2023-09-19T13:18:53;1.42;;;1.20;;
22579;SDS011;11456;47.030;15.396;2023-09-19T13:21:32;1.80;;;1.20;;
22579;SDS011;11456;47.030;15.396;2023-09-19T13:24:23;5.57;;;1.30;;
22579;SDS011;11456;47.030;15.396;2023-09-19T13:26:54;5.35;;;1.40;;
22579;SDS011;11456;47.030;15.396;2023-09-19T13:29:22;3.03;;;1.40;;
22579;SDS011;11456;47.030;15.396;2023-09-19T13:31:49;2.45;;;1.20;;
22579;SDS011;11456;47.030;15.396;2023-09-19T13:34:19;2.15;;;1.30;;
22579;SDS011;11456;47.030;15.396;2023-09-19T13:36:47;2.70;;;1.40;;
22579;SDS011;11456;47.030;15.396;2023-09-19T13:39:17;4.95;;;1.63;;
22579;SDS011;11456;47.030;15.396;2023-09-19T13:41:44;1.92;;;1.30;;
22579;SDS011;11456;47.030;15.396;2023-09-19T13:44:13;2.75;;;1.10;;
22579;SDS011;11456;47.030;15.396;2023-09-19T13:46:40;2.50;;;1.30;;
22579;SDS011;11456;47.030;15.396;2023-09-19T13:49:12;1.85;;;1.05;;
22579;SDS011;11456;47.030;15.396;2023-09-19T13:51:39;2.78;;;1.25;;
22579;SDS011;11456;47.030;15.396;2023-09-19T13:54:10;3.85;;;1.20;;
22579;SDS011;11456;47.030;15.396;2023-09-19T13:56:38;6.82;;;1.65;;
22579;SDS011;11456;47.030;15.396;2023-09-19T13:59:05;5.57;;;1.50;;
22579;SDS011;11456;47.030;15.396;2023-09-19T14:01:32;2.03;;;1.13;;
22579;SDS011;11456;47.030;15.396;2023-09-19T14:03:59;2.85;;;1.38;;
22579;SDS011;11456;47.030;15.396;2023-09-19T14:06:26;3.50;;;1.70;;
22579;SDS011;11456;47.030;15.396;2023-09-19T14:08:53;7.05;;;1.50;;
22579;SDS011;11456;47.030;15.396;2023-09-19T14:11:19;7.00;;;1.80;;
22579;SDS011;11456;47.030;15.396;2023-09-19T14:13:46;3.92;;;1.35;;
22579;SDS011;11456;47.030;15.396;2023-09-19T14:16:16;3.80;;;1.40;;
22579;SDS011;11456;47.030;15.396;2023-09-19T14:18:45;3.17;;;1.25;;
22579;SDS011;11456;47.030;15.396;2023-09-19T14:21:12;5.90;;;1.60;;
22579;SDS011;11456;47.030;15.396;2023-09-19T14:23:40;2.92;;;1.42;;
22579;SDS011;11456;47.030;15.396;2023-09-19T14:26:08;4.07;;;1.30;;
22579;SDS011;11456;47.030;15.396;2023-09-19T14:28:35;3.60;;;1.55;;
22579;SDS011;11456;47.030;15.396;2023-09-19T14:31:09;3.25;;;1.60;;
22579;SDS011;11456;47.030;15.396;2023-09-19T14:33:37;3.88;;;1.52;;
22579;SDS011;11456;47.030;15.396;2023-09-19T14:36:05;5.47;;;1.50;;
22579;SDS011;11456;47.030;15.396;2023-09-19T14:38:35;3.13;;;1.33;;
22579;SDS011;11456;47.030;15.396;2023-09-19T14:41:02;2.03;;;1.38;;
22579;SDS011;11456;47.030;15.396;2023-09-19T14:43:31;2.28;;;1.40;;
22579;SDS011;11456;47.030;15.396;2023-09-19T14:46:02;2.88;;;1.23;;
22579;SDS011;11456;47.030;15.396;2023-09-19T14:48:30;2.42;;;1.55;;
22579;SDS011;11456;47.030;15.396;2023-09-19T14:51:01;1.88;;;1.27;;
22579;SDS011;11456;47.030;15.396;2023-09-19T14:55:56;1.80;;;1.30;;
22579;SDS011;11456;47.030;15.396;2023-09-19T14:58:23;3.03;;;1.33;;
22579;SDS011;11456;47.030;15.396;2023-09-19T15:00:52;4.70;;;1.50;;
22579;SDS011;11456;47.030;15.396;2023-09-19T15:03:19;3.63;;;1.30;;
22579;SDS011;11456;47.030;15.396;2023-09-19T15:05:46;3.20;;;1.45;;
22579;SDS011;11456;47.030;15.396;2023-09-19T15:08:13;2.97;;;1.58;;
22579;SDS011;11456;47.030;15.396;2023-09-19T15:10:40;5.50;;;1.60;;
22579;SDS011;11456;47.030;15.396;2023-09-19T15:13:08;7.88;;;1.60;;
22579;SDS011;11456;47.030;15.396;2023-09-19T15:15:35;5.78;;;1.70;;
22579;SDS011;11456;47.030;15.396;2023-09-19T15:18:01;8.52;;;1.50;;
22579;SDS011;11456;47.030;15.396;2023-09-19T15:20:28;5.00;;;2.00;;
22579;SDS011;11456;47.030;15.396;2023-09-19T15:22:55;7.00;;;1.55;;
22579;SDS011;11456;47.030;15.396;2023-09-19T15:25:21;4.97;;;1.50;;
22579;SDS011;11456;47.030;15.396;2023-09-19T15:27:49;2.97;;;1.67;;
22579;SDS011;11456;47.030;15.396;2023-09-19T15:30:16;2.95;;;1.60;;
22579;SDS011;11456;47.030;15.396;2023-09-19T15:32:43;2.72;;;1.65;;
22579;SDS011;11456;47.030;15.396;2023-09-19T15:35:09;4.55;;;1.60;;
22579;SDS011;11456;47.030;15.396;2023-09-19T15:37:40;3.92;;;1.42;;
22579;SDS011;11456;47.030;15.396;2023-09-19T15:40:07;4.45;;;1.50;;
22579;SDS011;11456;47.030;15.396;2023-09-19T15:42:37;3.10;;;1.50;;
22579;SDS011;11456;47.030;15.396;2023-09-19T15:45:04;2.92;;;1.50;;
22579;SDS011;11456;47.030;15.396;2023-09-19T15:47:31;4.55;;;1.45;;
22579;SDS011;11456;47.030;15.396;2023-09-19T15:49:57;2.38;;;1.38;;
22579;SDS011;11456;47.030;15.396;2023-09-19T15:52:24;2.20;;;1.20;;
22579;SDS011;11456;47.030;15.396;2023-09-19T15:54:52;5.18;;;1.48;;